createdAt,value
2022-10-13T03:18:34.239Z,97584.78
2022-10-13T03:21:04.508Z,97576.03
2022-10-13T03:23:33.127Z,97574.75
2022-10-13T03:26:01.417Z,97577.88
2022-10-13T03:28:29.929Z,97585.78
2022-10-13T03:31:05.149Z,97581.03
2022-10-13T03:33:34.751Z,97586.13
2022-10-13T03:36:04.358Z,97592.25
2022-10-13T03:38:33.758Z,97595.06
2022-10-13T03:41:06.337Z,97589.63
2022-10-13T03:43:34.577Z,97584.84
2022-10-13T03:46:03.927Z,97583.72
2022-10-13T03:48:32.431Z,97583.34
2022-10-13T03:51:05.376Z,97592.78
2022-10-13T03:53:33.877Z,97605.00
2022-10-13T03:56:02.696Z,97587.66
2022-10-13T03:58:30.852Z,97585.00
2022-10-13T04:01:04.757Z,97596.28
2022-10-13T04:03:33.368Z,97599.44
2022-10-13T04:06:03.477Z,97594.50
2022-10-13T04:08:31.850Z,97598.94
2022-10-13T04:11:01.151Z,97583.75
2022-10-13T04:13:30.173Z,97593.03
2022-10-13T04:15:58.319Z,97594.50
2022-10-13T04:18:26.471Z,97592.81
2022-10-13T04:20:54.577Z,97593.91
2022-10-13T04:23:24.367Z,97600.34
2022-10-13T04:25:52.676Z,97606.28
2022-10-13T04:28:20.907Z,97593.44
2022-10-13T04:30:49.706Z,97599.25
2022-10-13T04:33:18.000Z,97604.84
2022-10-13T04:35:46.817Z,97601.41
2022-10-13T04:38:14.958Z,97601.91
2022-10-13T04:40:44.917Z,97600.44
2022-10-13T04:43:13.010Z,97595.81
2022-10-13T04:45:41.726Z,97596.47
2022-10-13T04:48:09.831Z,97589.53
2022-10-13T04:50:38.047Z,97592.00
2022-10-13T04:53:06.148Z,97593.31
2022-10-13T04:55:37.303Z,97590.88
2022-10-13T04:58:06.818Z,97588.41
2022-10-13T05:00:35.117Z,97586.44
2022-10-13T05:03:03.337Z,97583.63
2022-10-13T05:05:31.488Z,97586.28
2022-10-13T05:07:59.618Z,97587.44
2022-10-13T05:10:31.311Z,97592.06
2022-10-13T05:13:02.768Z,97588.09
2022-10-13T05:15:32.287Z,97585.78
2022-10-13T05:18:00.718Z,97583.63
2022-10-13T05:20:28.818Z,97584.78
2022-10-13T05:22:57.211Z,97581.81
2022-10-13T05:25:26.197Z,97577.66
2022-10-13T05:27:56.439Z,97579.31
2022-10-13T05:30:24.558Z,97583.63
2022-10-13T05:32:54.163Z,97578.34
2022-10-13T05:35:22.377Z,97576.34
2022-10-13T05:37:50.548Z,97569.13
2022-10-13T05:40:18.835Z,97570.25
2022-10-13T05:42:46.919Z,97582.66
2022-10-13T05:45:15.107Z,97575.22
2022-10-13T05:47:43.221Z,97576.88
2022-10-13T05:50:12.974Z,97562.19
2022-10-13T05:52:41.230Z,97569.13
2022-10-13T05:55:12.006Z,97572.09
2022-10-13T05:57:42.319Z,97567.97
2022-10-13T06:00:13.076Z,97568.97
2022-10-13T06:02:43.026Z,97554.06
2022-10-13T06:05:16.804Z,97567.78
2022-10-13T06:07:45.477Z,97566.31
2022-10-13T06:10:14.380Z,97558.19
2022-10-13T06:12:42.687Z,97567.94
2022-10-13T06:15:11.840Z,97564.16
2022-10-13T06:17:40.358Z,97561.50
2022-10-13T06:20:10.085Z,97567.78
2022-10-13T06:22:40.267Z,97567.59
2022-10-13T06:25:10.384Z,97571.25
2022-10-13T06:27:38.558Z,97566.47
2022-10-13T06:30:07.549Z,97568.25
2022-10-13T06:32:35.809Z,97561.31
2022-10-13T06:35:04.171Z,97563.09
2022-10-13T06:37:32.570Z,97561.13
2022-10-13T06:40:02.106Z,97555.09
2022-10-13T06:42:32.030Z,97557.88
2022-10-13T06:45:00.129Z,97555.19
2022-10-13T06:47:28.288Z,97567.19
2022-10-13T06:49:56.367Z,97570.47
2022-10-13T06:52:24.508Z,97564.75
2022-10-13T06:54:52.625Z,97574.38
2022-10-13T06:57:22.169Z,97563.75
2022-10-13T06:59:50.471Z,97559.88
2022-10-13T07:02:18.884Z,97565.81
2022-10-13T07:04:48.194Z,97563.81
2022-10-13T07:07:17.323Z,97569.34
2022-10-13T07:09:45.438Z,97565.97
2022-10-13T07:12:14.700Z,97563.88
2022-10-13T07:14:44.247Z,97569.19
2022-10-13T07:17:12.752Z,97559.09
2022-10-13T07:19:40.998Z,97564.38
2022-10-13T07:22:09.087Z,97560.31
2022-10-13T07:24:37.371Z,97555.56
2022-10-13T07:27:07.908Z,97550.00
2022-10-13T07:29:36.467Z,97546.50
2022-10-13T07:32:06.628Z,97530.28
2022-10-13T07:34:34.799Z,97535.63
2022-10-13T07:37:02.967Z,97538.38
2022-10-13T07:39:31.327Z,97534.34
2022-10-13T07:41:59.605Z,97530.31
2022-10-13T07:44:27.951Z,97530.56
2022-10-13T07:46:56.037Z,97521.88
2022-10-13T07:49:25.590Z,97532.34
2022-10-13T07:51:53.716Z,97531.31
2022-10-13T07:54:23.838Z,97521.22
2022-10-13T07:56:56.236Z,97514.03
2022-10-13T07:59:24.453Z,97517.03
2022-10-13T08:01:52.949Z,97517.63
2022-10-13T08:04:21.147Z,97519.66
2022-10-13T08:06:50.675Z,97522.88
2022-10-13T08:09:19.177Z,97509.06
2022-10-13T08:11:47.257Z,97511.69
2022-10-13T08:14:15.429Z,97505.19
2022-10-13T08:16:48.694Z,97508.28
2022-10-13T08:19:20.437Z,97509.66
2022-10-13T08:22:06.611Z,97508.97
2022-10-13T08:24:39.007Z,97509.22
2022-10-13T08:27:07.108Z,97515.44
2022-10-13T08:29:35.325Z,97516.00
2022-10-13T08:32:03.478Z,97519.56
2022-10-13T08:34:31.655Z,97518.38
2022-10-13T08:37:00.447Z,97521.31
2022-10-13T08:39:28.715Z,97516.66
2022-10-13T08:41:58.721Z,97510.88
2022-10-13T08:47:26.059Z,97513.28
2022-10-13T08:49:59.123Z,97509.88
2022-10-13T08:52:30.347Z,97513.38
2022-10-13T08:54:59.533Z,97512.78
2022-10-13T08:57:29.072Z,97508.41
2022-10-13T08:59:57.265Z,97508.56
2022-10-13T09:02:27.416Z,97512.59
2022-10-13T09:04:55.565Z,97510.50
2022-10-13T09:07:26.347Z,97504.97
2022-10-13T09:09:55.350Z,97505.34
2022-10-13T09:12:25.148Z,97516.28
2022-10-13T09:15:05.384Z,97511.66
2022-10-13T09:17:34.673Z,97515.50
2022-10-13T09:20:05.530Z,97506.97
2022-10-13T09:22:35.256Z,97515.50
2022-10-13T09:25:12.508Z,97509.00
2022-10-13T09:27:44.941Z,97506.88
2022-10-13T09:30:33.948Z,97507.25
2022-10-13T09:33:24.735Z,97502.44
2022-10-13T09:36:11.213Z,97502.38
2022-10-13T09:38:40.665Z,97506.53
2022-10-13T09:41:15.474Z,97508.91
2022-10-13T09:43:45.305Z,97512.13
2022-10-13T09:46:23.008Z,97502.97
2022-10-13T09:48:54.115Z,97506.44
2022-10-13T09:51:32.250Z,97514.97
2022-10-13T09:54:00.417Z,97510.72
2022-10-13T09:56:32.358Z,97512.53
2022-10-13T09:59:08.776Z,97497.56
2022-10-13T10:01:44.577Z,97504.53
2022-10-13T10:04:15.816Z,97504.06
2022-10-13T10:06:45.567Z,97508.06
2022-10-13T10:09:27.867Z,97494.16
2022-10-13T10:11:59.430Z,97495.53
2022-10-13T10:14:29.175Z,97495.97
2022-10-13T10:17:04.907Z,97483.06
2022-10-13T10:19:46.057Z,97492.19
2022-10-13T10:22:19.556Z,97480.22
2022-10-13T10:24:50.918Z,97491.47
2022-10-13T10:29:57.978Z,97465.81
2022-10-13T10:32:34.000Z,97468.75
2022-10-13T10:35:05.810Z,97468.06
2022-10-13T10:37:46.770Z,97462.72
2022-10-13T10:40:26.684Z,97463.91
2022-10-13T10:43:02.249Z,97458.56
2022-10-13T10:45:35.238Z,97448.84
2022-10-13T10:48:14.028Z,97448.69
2022-10-13T10:50:42.717Z,97442.16
2022-10-13T10:53:16.077Z,97450.66
2022-10-13T10:55:51.504Z,97445.88
2022-10-13T10:58:25.847Z,97444.63
2022-10-13T11:00:59.987Z,97452.69
2022-10-13T11:03:39.847Z,97447.56
2022-10-13T11:06:24.377Z,97448.16
2022-10-13T11:08:52.805Z,97448.97
2022-10-13T11:11:43.538Z,97442.50
2022-10-13T11:14:32.258Z,97436.47
2022-10-13T11:17:17.900Z,97436.63
2022-10-13T11:19:49.160Z,97435.81
2022-10-13T11:22:23.208Z,97426.25
2022-10-13T11:25:03.507Z,97428.28
2022-10-13T11:27:45.279Z,97423.09
2022-10-13T11:30:43.257Z,97425.72
2022-10-13T11:33:57.368Z,97422.88
2022-10-13T11:36:52.496Z,97422.31
2022-10-13T11:40:04.978Z,97415.16
2022-10-13T11:42:58.300Z,97403.94
2022-10-13T11:46:02.975Z,97403.81
2022-10-13T11:48:53.869Z,97408.28
2022-10-13T11:51:32.457Z,97403.44
2022-10-13T11:54:15.067Z,97385.53
2022-10-13T11:56:49.129Z,97396.69
2022-10-13T11:59:26.259Z,97392.53
2022-10-13T12:01:55.491Z,97387.31
2022-10-13T12:04:26.001Z,97374.22
2022-10-13T12:06:57.638Z,97374.03
2022-10-13T12:09:27.597Z,97377.31
2022-10-13T12:12:01.888Z,97372.19
2022-10-13T12:14:33.658Z,97364.84
2022-10-13T12:17:02.958Z,97358.28
2022-10-13T12:19:33.367Z,97369.63
2022-10-13T12:22:02.910Z,97363.47
2022-10-13T12:24:32.467Z,97360.16
2022-10-13T12:27:00.910Z,97357.94
2022-10-13T12:29:34.830Z,97336.81
2022-10-13T12:32:06.092Z,97340.66
2022-10-13T12:34:36.537Z,97333.72
2022-10-13T12:37:07.317Z,97326.69
2022-10-13T12:39:37.148Z,97335.78
2022-10-13T12:42:08.280Z,97334.78
2022-10-13T12:44:36.510Z,97334.13
2022-10-13T12:47:04.957Z,97334.94
2022-10-13T12:49:34.615Z,97330.03
2022-10-13T12:52:07.151Z,97333.09
2022-10-13T12:54:39.682Z,97323.88
2022-10-13T12:57:18.078Z,97329.41
2022-10-13T12:59:46.569Z,97325.31
2022-10-13T13:02:22.164Z,97332.69
2022-10-13T13:04:50.697Z,97331.66
2022-10-13T13:07:32.749Z,97331.69
2022-10-13T13:10:16.009Z,97331.69
2022-10-13T13:12:44.731Z,97331.91
2022-10-13T13:15:32.319Z,97334.75
2022-10-13T13:18:29.657Z,97329.19
2022-10-13T13:20:58.227Z,97333.31
2022-10-13T13:23:33.358Z,97329.00
2022-10-13T13:26:04.708Z,97329.81
2022-10-13T13:28:33.682Z,97325.09
2022-10-13T13:31:01.793Z,97331.66
2022-10-13T13:33:30.091Z,97328.34
2022-10-13T13:35:58.180Z,97325.28
2022-10-13T13:38:26.527Z,97319.75
2022-10-13T13:40:54.607Z,97322.44
2022-10-13T13:43:24.246Z,97315.25
2022-10-13T13:45:52.359Z,97314.66
2022-10-13T13:48:20.785Z,97305.63
2022-10-13T13:50:48.907Z,97311.38
2022-10-13T13:53:17.755Z,97303.38
2022-10-13T13:55:46.058Z,97308.09
2022-10-13T13:58:14.208Z,97303.19
2022-10-13T14:00:43.835Z,97293.13
2022-10-13T14:03:17.092Z,97291.50
2022-10-13T14:05:47.297Z,97281.63
2022-10-13T14:08:16.140Z,97283.69
2022-10-13T14:10:44.307Z,97286.78
2022-10-13T14:13:12.540Z,97266.44
2022-10-13T14:15:40.637Z,97270.13
2022-10-13T14:18:10.218Z,97276.06
2022-10-13T14:20:41.987Z,97287.19
2022-10-13T14:23:10.157Z,97290.28
2022-10-13T14:25:39.607Z,97287.38
2022-10-13T14:28:07.772Z,97288.38
2022-10-13T14:30:35.886Z,97288.59
2022-10-13T14:33:05.238Z,97287.56
2022-10-13T14:35:34.826Z,97294.28
2022-10-13T14:38:03.081Z,97288.56
2022-10-13T14:40:31.168Z,97287.69
2022-10-13T14:42:59.257Z,97289.94
2022-10-13T14:45:27.420Z,97279.13
2022-10-13T14:47:55.499Z,97270.09
2022-10-13T14:50:24.217Z,97280.38
2022-10-13T14:52:53.717Z,97261.09
2022-10-13T14:55:22.695Z,97268.31
2022-10-13T14:57:50.806Z,97273.03
2022-10-13T15:00:19.585Z,97270.16
2022-10-13T15:02:48.025Z,97273.00
2022-10-13T15:05:16.700Z,97281.22
2022-10-13T15:07:45.061Z,97264.00
2022-10-13T15:10:14.660Z,97281.63
2022-10-13T15:12:42.831Z,97276.31
2022-10-13T15:15:11.957Z,97269.50
2022-10-13T15:17:40.055Z,97271.34
2022-10-13T15:20:09.679Z,97263.78
2022-10-13T15:22:37.889Z,97268.88
2022-10-13T15:25:10.067Z,97267.78
2022-10-13T15:27:42.018Z,97277.88
2022-10-13T15:30:11.553Z,97271.53
2022-10-13T15:32:39.736Z,97268.47
2022-10-13T15:35:08.656Z,97269.28
2022-10-13T15:37:37.251Z,97271.31
2022-10-13T15:40:06.031Z,97267.59
2022-10-13T15:42:34.995Z,97253.22
2022-10-13T15:45:09.961Z,97275.53
2022-10-13T15:47:38.466Z,97276.72
2022-10-13T15:50:07.305Z,97267.25
2022-10-13T15:52:40.880Z,97282.75
2022-10-13T15:55:09.860Z,97280.28
2022-10-13T15:57:38.486Z,97278.94
2022-10-13T16:00:11.091Z,97284.94
2022-10-13T16:02:40.488Z,97281.19
2022-10-13T16:05:10.404Z,97285.72
2022-10-13T16:07:40.172Z,97285.09
2022-10-13T16:10:09.332Z,97281.66
2022-10-13T16:12:37.785Z,97290.63
2022-10-13T16:15:08.473Z,97290.34
2022-10-13T16:17:36.797Z,97287.63
2022-10-13T16:20:05.269Z,97292.34
2022-10-13T16:22:33.683Z,97291.28
2022-10-13T16:25:01.833Z,97290.78
2022-10-13T16:27:30.444Z,97288.44
2022-10-13T16:29:58.615Z,97287.88
2022-10-13T16:32:28.394Z,97290.22
2022-10-13T16:34:56.544Z,97283.75
2022-10-13T16:40:17.824Z,97290.06
2022-10-13T16:42:46.703Z,97291.19
2022-10-13T16:45:15.331Z,97288.56
2022-10-13T16:47:44.895Z,97304.31
2022-10-13T17:24:34.774Z,97313.16
2022-10-13T17:27:03.756Z,97312.31
2022-10-13T17:29:31.954Z,97311.31
2022-10-13T17:32:01.764Z,97320.47
2022-10-13T17:34:29.913Z,97312.50
2022-10-13T17:37:00.344Z,97310.03
2022-10-13T17:39:28.584Z,97310.13
2022-10-13T17:41:56.743Z,97306.19
2022-10-13T17:44:25.234Z,97306.72
2022-10-13T17:46:53.427Z,97298.50
2022-10-13T17:49:21.714Z,97304.97
2022-10-13T17:51:52.624Z,97310.81
2022-10-13T17:54:22.605Z,97314.13
2022-10-13T17:56:50.985Z,97315.94
2022-10-13T17:59:20.254Z,97312.34
2022-10-13T18:01:48.505Z,97311.06
2022-10-13T18:04:18.923Z,97304.19
2022-10-13T18:06:47.333Z,97302.25
2022-10-13T18:09:17.754Z,97294.88
2022-10-13T18:11:50.706Z,97303.72
2022-10-13T18:14:20.113Z,97306.59
2022-10-13T18:16:49.005Z,97298.22
2022-10-13T18:19:17.266Z,97296.44
2022-10-13T18:21:45.574Z,97286.22
2022-10-13T18:24:13.814Z,97287.72
2022-10-13T18:26:42.451Z,97298.50
2022-10-13T18:29:13.426Z,97299.03
2022-10-13T18:31:43.453Z,97297.38
2022-10-13T18:34:14.926Z,97301.31
2022-10-13T18:36:44.683Z,97297.50
2022-10-13T18:39:14.244Z,97297.66
2022-10-13T18:41:43.166Z,97296.03
2022-10-13T18:44:13.526Z,97287.44
2022-10-13T18:46:41.968Z,97285.63
2022-10-13T18:49:14.061Z,97283.69
2022-10-13T18:51:42.663Z,97288.31
2022-10-13T18:54:11.483Z,97291.31
2022-10-13T18:56:39.654Z,97284.56
2022-10-13T18:59:09.918Z,97283.94
2022-10-13T19:01:40.996Z,97283.28
2022-10-13T19:04:10.146Z,97292.56
2022-10-13T19:06:39.134Z,97289.28
2022-10-13T19:09:09.405Z,97283.03
2022-10-13T19:11:38.137Z,97285.56
2022-10-13T19:14:09.187Z,97276.97
2022-10-13T19:16:41.176Z,97274.84
2022-10-13T19:19:09.894Z,97272.91
2022-10-13T19:21:38.964Z,97276.06
2022-10-13T19:24:08.033Z,97266.19
2022-10-13T19:26:37.407Z,97265.03
2022-10-13T19:29:07.205Z,97261.16
2022-10-13T19:31:35.856Z,97276.31
2022-10-13T19:34:05.819Z,97279.97
2022-10-13T19:36:36.384Z,97275.31
2022-10-13T19:39:06.864Z,97275.31
2022-10-13T19:41:36.499Z,97277.28
2022-10-13T19:44:04.681Z,97261.41
2022-10-13T19:46:33.554Z,97274.56
2022-10-13T19:49:01.703Z,97280.44
2022-10-13T19:51:31.555Z,97278.72
2022-10-13T19:53:59.892Z,97262.50
2022-10-13T19:56:31.464Z,97273.78
2022-10-13T19:58:59.959Z,97265.34
2022-10-13T20:01:28.303Z,97270.00
2022-10-13T20:03:56.594Z,97261.84
2022-10-13T20:06:24.784Z,97252.97
2022-10-13T20:08:54.354Z,97254.81
2022-10-13T20:11:24.344Z,97248.03
2022-10-13T20:13:53.342Z,97248.41
2022-10-13T20:16:24.261Z,97240.19
2022-10-13T20:18:53.773Z,97250.25
2022-10-13T20:21:22.755Z,97247.13
2022-10-13T20:23:51.144Z,97251.47
2022-10-13T20:26:21.199Z,97240.31
2022-10-13T20:28:50.470Z,97253.97
2022-10-13T20:31:21.612Z,97239.34
2022-10-13T20:33:50.748Z,97255.34
2022-10-13T20:36:19.599Z,97256.19
2022-10-13T20:38:48.873Z,97254.25
2022-10-13T20:41:18.572Z,97246.88
2022-10-13T20:43:49.299Z,97239.78
2022-10-13T20:46:19.555Z,97233.72
2022-10-13T20:51:36.373Z,97237.38
2022-10-13T20:54:04.698Z,97239.34
2022-10-13T20:56:32.853Z,97236.72
2022-10-13T20:59:05.412Z,97237.22
2022-10-13T21:01:34.084Z,97235.38
2022-10-13T21:04:02.299Z,97242.00
2022-10-13T21:06:30.493Z,97226.97
2022-10-13T21:08:58.722Z,97235.22
2022-10-13T21:11:26.975Z,97234.22
2022-10-13T21:13:55.512Z,97230.78
2022-10-13T21:16:27.629Z,97238.19
2022-10-13T21:18:56.933Z,97244.28
2022-10-13T21:21:27.036Z,97238.97
2022-10-13T21:23:56.434Z,97246.53
2022-10-13T21:26:25.513Z,97245.53
2022-10-13T21:28:53.973Z,97252.31
2022-10-13T21:31:24.853Z,97249.84
2022-10-13T21:33:53.091Z,97251.47
2022-10-13T21:36:23.147Z,97252.09
2022-10-13T21:38:53.536Z,97273.38
2022-10-13T21:41:22.697Z,97284.72
2022-10-13T21:43:51.243Z,97293.31
2022-10-13T21:46:21.491Z,97280.13
2022-10-13T21:48:51.544Z,97295.09
2022-10-13T21:51:21.374Z,97273.78
2022-10-13T21:53:51.073Z,97248.28
2022-10-13T21:56:19.838Z,97283.03
2022-10-13T21:58:49.218Z,97299.31
2022-10-13T22:01:19.826Z,97297.88
2022-10-13T22:03:48.453Z,97290.44
2022-10-13T22:06:19.790Z,97287.78
2022-10-13T22:08:50.217Z,97291.97
2022-10-13T22:11:19.361Z,97289.56
2022-10-13T22:13:47.694Z,97283.44
2022-10-13T22:16:17.769Z,97286.06
2022-10-13T22:18:46.091Z,97291.84
2022-10-13T22:21:17.138Z,97272.56
2022-10-13T22:23:47.614Z,97291.66
2022-10-13T22:26:17.038Z,97287.00
2022-10-13T22:28:45.383Z,97286.38
2022-10-13T22:31:14.447Z,97272.69
2022-10-13T22:33:43.655Z,97279.78
2022-10-13T22:36:14.748Z,97266.31
2022-10-13T22:38:43.046Z,97279.50
2022-10-13T22:41:14.923Z,97275.72
2022-10-13T22:43:44.463Z,97268.97
2022-10-13T22:46:12.918Z,97269.97
2022-10-13T22:48:41.745Z,97266.47
2022-10-13T22:51:10.328Z,97264.03
2022-10-13T22:53:39.063Z,97272.59
2022-10-13T22:56:07.887Z,97266.13
2022-10-13T22:58:37.574Z,97265.47
2022-10-13T23:01:06.755Z,97264.47
2022-10-13T23:03:34.995Z,97266.31
2022-10-13T23:06:03.380Z,97261.50
2022-10-13T23:08:31.614Z,97257.38
2022-10-13T23:10:59.806Z,97259.75
2022-10-13T23:13:28.113Z,97251.16
2022-10-13T23:16:02.282Z,97254.81
2022-10-13T23:18:30.413Z,97253.16
2022-10-13T23:20:58.653Z,97261.09
2022-10-13T23:23:26.844Z,97251.16
2022-10-13T23:25:55.014Z,97252.16
2022-10-13T23:28:23.266Z,97254.25
2022-10-13T23:30:51.473Z,97246.69
2022-10-13T23:33:21.107Z,97260.72
2022-10-13T23:35:55.799Z,97245.88
2022-10-13T23:38:24.413Z,97247.16
2022-10-13T23:40:53.745Z,97243.75
2022-10-13T23:43:22.279Z,97241.59
2022-10-13T23:45:50.564Z,97233.66
2022-10-13T23:48:20.143Z,97240.09
2022-10-13T23:50:48.352Z,97244.72
2022-10-13T23:53:16.953Z,97236.16
2022-10-13T23:55:45.273Z,97241.25
2022-10-13T23:58:14.132Z,97235.81
